sensor_id;sensor_type;location;lat;lon;timestamp;temperature;humidity
24402;DHT22;12539;48.808;11.292;2022-11-13T00:01:55;7.70;99.90
24402;DHT22;12539;48.808;11.292;2022-11-13T00:04:21;7.80;99.90
24402;DHT22;12539;48.808;11.292;2022-11-13T00:06:47;7.80;99.90
24402;DHT22;12539;48.808;11.292;2022-11-13T00:09:12;7.80;99.90
24402;DHT22;12539;48.808;11.292;2022-11-13T00:11:38;7.80;99.90
24402;DHT22;12539;48.808;11.292;2022-11-13T00:14:04;7.80;99.90
24402;DHT22;12539;48.808;11.292;2022-11-13T00:16:30;7.80;99.90
24402;DHT22;12539;48.808;11.292;2022-11-13T00:18:55;7.80;99.90
24402;DHT22;12539;48.808;11.292;2022-11-13T00:21:23;7.80;99.90
24402;DHT22;12539;48.808;11.292;2022-11-13T00:23:50;7.80;99.90
24402;DHT22;12539;48.808;11.292;2022-11-13T00:26:21;7.70;99.90
24402;DHT22;12539;48.808;11.292;2022-11-13T00:29:00;7.60;99.90
24402;DHT22;12539;48.808;11.292;2022-11-13T00:31:27;7.60;99.90
24402;DHT22;12539;48.808;11.292;2022-11-13T00:33:53;7.60;99.90
24402;DHT22;12539;48.808;11.292;2022-11-13T00:36:22;7.70;99.90
24402;DHT22;12539;48.808;11.292;2022-11-13T00:38:48;7.60;99.90
24402;DHT22;12539;48.808;11.292;2022-11-13T00:41:14;7.60;99.90
24402;DHT22;12539;48.808;11.292;2022-11-13T00:43:40;7.70;99.90
24402;DHT22;12539;48.808;11.292;2022-11-13T00:46:06;7.70;99.90
24402;DHT22;12539;48.808;11.292;2022-11-13T00:48:33;7.80;99.90
24402;DHT22;12539;48.808;11.292;2022-11-13T00:50:59;7.80;99.90
24402;DHT22;12539;48.808;11.292;2022-11-13T00:53:25;7.80;99.90
24402;DHT22;12539;48.808;11.292;2022-11-13T00:55:51;7.70;99.90
24402;DHT22;12539;48.808;11.292;2022-11-13T00:58:17;7.70;99.90
24402;DHT22;12539;48.808;11.292;2022-11-13T01:00:45;7.70;99.90
24402;DHT22;12539;48.808;11.292;2022-11-13T01:03:11;7.70;99.90
24402;DHT22;12539;48.808;11.292;2022-11-13T01:05:40;7.70;99.90
24402;DHT22;12539;48.808;11.292;2022-11-13T01:08:07;7.80;99.90
24402;DHT22;12539;48.808;11.292;2022-11-13T01:10:34;7.70;99.90
24402;DHT22;12539;48.808;11.292;2022-11-13T01:13:00;7.70;99.90
24402;DHT22;12539;48.808;11.292;2022-11-13T01:15:26;7.60;99.90
24402;DHT22;12539;48.808;11.292;2022-11-13T01:17:51;7.60;99.90
24402;DHT22;12539;48.808;11.292;2022-11-13T01:20:20;7.50;99.90
24402;DHT22;12539;48.808;11.292;2022-11-13T01:22:46;7.50;99.90
24402;DHT22;12539;48.808;11.292;2022-11-13T01:25:12;7.50;99.90
24402;DHT22;12539;48.808;11.292;2022-11-13T01:27:38;7.50;99.90
24402;DHT22;12539;48.808;11.292;2022-11-13T01:30:04;7.40;99.90
24402;DHT22;12539;48.808;11.292;2022-11-13T01:32:30;7.30;99.90
24402;DHT22;12539;48.808;11.292;2022-11-13T01:34:57;7.20;99.90
24402;DHT22;12539;48.808;11.292;2022-11-13T01:37:23;7.20;99.90
24402;DHT22;12539;48.808;11.292;2022-11-13T01:39:49;7.10;99.90
24402;DHT22;12539;48.808;11.292;2022-11-13T01:42:14;7.10;99.90
24402;DHT22;12539;48.808;11.292;2022-11-13T01:44:53;7.10;99.90
24402;DHT22;12539;48.808;11.292;2022-11-13T01:47:19;7.10;99.90
24402;DHT22;12539;48.808;11.292;2022-11-13T01:49:46;7.10;99.90
24402;DHT22;12539;48.808;11.292;2022-11-13T01:52:19;7.20;99.90
24402;DHT22;12539;48.808;11.292;2022-11-13T01:54:59;7.20;99.90
24402;DHT22;12539;48.808;11.292;2022-11-13T01:57:26;7.30;99.90
24402;DHT22;12539;48.808;11.292;2022-11-13T01:59:55;7.20;99.90
24402;DHT22;12539;48.808;11.292;2022-11-13T02:02:22;7.20;99.90
24402;DHT22;12539;48.808;11.292;2022-11-13T02:04:48;7.10;99.90
24402;DHT22;12539;48.808;11.292;2022-11-13T02:07:15;7.10;99.90
24402;DHT22;12539;48.808;11.292;2022-11-13T02:09:46;7.10;99.90
24402;DHT22;12539;48.808;11.292;2022-11-13T02:12:15;7.10;99.90
24402;DHT22;12539;48.808;11.292;2022-11-13T02:14:43;7.10;99.90
24402;DHT22;12539;48.808;11.292;2022-11-13T02:17:26;6.90;99.90
24402;DHT22;12539;48.808;11.292;2022-11-13T02:19:56;6.80;99.90
24402;DHT22;12539;48.808;11.292;2022-11-13T02:25:11;6.60;99.90
24402;DHT22;12539;48.808;11.292;2022-11-13T02:27:47;6.60;99.90
24402;DHT22;12539;48.808;11.292;2022-11-13T02:30:19;6.60;99.90
24402;DHT22;12539;48.808;11.292;2022-11-13T02:32:47;6.60;99.90
24402;DHT22;12539;48.808;11.292;2022-11-13T02:35:17;6.50;99.90
24402;DHT22;12539;48.808;11.292;2022-11-13T02:37:43;6.50;99.90
24402;DHT22;12539;48.808;11.292;2022-11-13T02:40:09;6.40;99.90
24402;DHT22;12539;48.808;11.292;2022-11-13T02:42:35;6.40;99.90
24402;DHT22;12539;48.808;11.292;2022-11-13T02:45:01;6.50;99.90
24402;DHT22;12539;48.808;11.292;2022-11-13T02:47:27;6.40;99.90
24402;DHT22;12539;48.808;11.292;2022-11-13T02:49:52;6.40;99.90
24402;DHT22;12539;48.808;11.292;2022-11-13T02:52:18;6.30;99.90
24402;DHT22;12539;48.808;11.292;2022-11-13T02:54:44;6.30;99.90
24402;DHT22;12539;48.808;11.292;2022-11-13T02:57:10;6.30;99.90
24402;DHT22;12539;48.808;11.292;2022-11-13T02:59:35;6.40;99.90
24402;DHT22;12539;48.808;11.292;2022-11-13T03:02:01;6.30;99.90
24402;DHT22;12539;48.808;11.292;2022-11-13T03:04:27;6.20;99.90
24402;DHT22;12539;48.808;11.292;2022-11-13T03:06:52;6.10;99.90
24402;DHT22;12539;48.808;11.292;2022-11-13T03:09:18;6.00;99.90
24402;DHT22;12539;48.808;11.292;2022-11-13T03:11:44;6.00;99.90
24402;DHT22;12539;48.808;11.292;2022-11-13T03:14:09;5.90;99.90
24402;DHT22;12539;48.808;11.292;2022-11-13T03:16:35;5.80;99.90
24402;DHT22;12539;48.808;11.292;2022-11-13T03:19:01;5.80;99.90
24402;DHT22;12539;48.808;11.292;2022-11-13T03:21:27;5.80;99.90
24402;DHT22;12539;48.808;11.292;2022-11-13T03:23:53;5.90;99.90
24402;DHT22;12539;48.808;11.292;2022-11-13T03:26:19;5.90;99.90
24402;DHT22;12539;48.808;11.292;2022-11-13T03:28:45;5.90;99.90
24402;DHT22;12539;48.808;11.292;2022-11-13T03:31:11;5.90;99.90
24402;DHT22;12539;48.808;11.292;2022-11-13T03:33:37;6.00;99.90
24402;DHT22;12539;48.808;11.292;2022-11-13T03:36:03;6.00;99.90
24402;DHT22;12539;48.808;11.292;2022-11-13T03:38:29;6.00;99.90
24402;DHT22;12539;48.808;11.292;2022-11-13T03:40:55;6.00;99.90
24402;DHT22;12539;48.808;11.292;2022-11-13T03:43:21;6.00;99.90
24402;DHT22;12539;48.808;11.292;2022-11-13T03:45:47;6.00;99.90
24402;DHT22;12539;48.808;11.292;2022-11-13T03:48:14;6.10;99.90
24402;DHT22;12539;48.808;11.292;2022-11-13T03:50:45;6.00;99.90
24402;DHT22;12539;48.808;11.292;2022-11-13T03:53:12;6.10;99.90
24402;DHT22;12539;48.808;11.292;2022-11-13T03:55:37;6.10;99.90
24402;DHT22;12539;48.808;11.292;2022-11-13T03:58:03;6.10;99.90
24402;DHT22;12539;48.808;11.292;2022-11-13T04:00:29;6.10;99.90
24402;DHT22;12539;48.808;11.292;2022-11-13T04:02:55;6.00;99.90
24402;DHT22;12539;48.808;11.292;2022-11-13T04:05:21;6.00;99.90
24402;DHT22;12539;48.808;11.292;2022-11-13T04:07:47;6.00;99.90
24402;DHT22;12539;48.808;11.292;2022-11-13T04:10:13;6.00;99.90
24402;DHT22;12539;48.808;11.292;2022-11-13T04:12:39;6.10;99.90
24402;DHT22;12539;48.808;11.292;2022-11-13T04:15:05;6.00;99.90
24402;DHT22;12539;48.808;11.292;2022-11-13T04:17:31;5.90;99.90
24402;DHT22;12539;48.808;11.292;2022-11-13T04:19:57;5.80;99.90
24402;DHT22;12539;48.808;11.292;2022-11-13T04:22:22;5.80;99.90
24402;DHT22;12539;48.808;11.292;2022-11-13T04:24:48;5.70;99.90
24402;DHT22;12539;48.808;11.292;2022-11-13T04:27:14;5.80;99.90
24402;DHT22;12539;48.808;11.292;2022-11-13T04:29:40;5.80;99.90
24402;DHT22;12539;48.808;11.292;2022-11-13T04:32:05;5.80;99.90
24402;DHT22;12539;48.808;11.292;2022-11-13T04:34:31;5.80;99.90
24402;DHT22;12539;48.808;11.292;2022-11-13T04:36:57;5.80;99.90
24402;DHT22;12539;48.808;11.292;2022-11-13T04:39:23;5.90;99.90
24402;DHT22;12539;48.808;11.292;2022-11-13T04:41:48;5.80;99.90
24402;DHT22;12539;48.808;11.292;2022-11-13T04:44:32;5.80;99.90
24402;DHT22;12539;48.808;11.292;2022-11-13T04:46:58;5.70;99.90
24402;DHT22;12539;48.808;11.292;2022-11-13T04:49:23;5.60;99.90
24402;DHT22;12539;48.808;11.292;2022-11-13T04:51:49;5.60;99.90
24402;DHT22;12539;48.808;11.292;2022-11-13T04:54:15;5.70;99.90
24402;DHT22;12539;48.808;11.292;2022-11-13T04:56:40;5.60;99.90
24402;DHT22;12539;48.808;11.292;2022-11-13T04:59:06;5.60;99.90
24402;DHT22;12539;48.808;11.292;2022-11-13T05:01:33;5.60;99.90
24402;DHT22;12539;48.808;11.292;2022-11-13T05:03:59;5.60;99.90
24402;DHT22;12539;48.808;11.292;2022-11-13T05:06:25;5.60;99.90
24402;DHT22;12539;48.808;11.292;2022-11-13T05:08:50;5.50;99.90
24402;DHT22;12539;48.808;11.292;2022-11-13T05:11:16;5.50;99.90
24402;DHT22;12539;48.808;11.292;2022-11-13T05:13:42;5.50;99.90
24402;DHT22;12539;48.808;11.292;2022-11-13T05:16:10;5.50;99.90
24402;DHT22;12539;48.808;11.292;2022-11-13T05:18:36;5.50;99.90
24402;DHT22;12539;48.808;11.292;2022-11-13T05:21:03;5.50;99.90
24402;DHT22;12539;48.808;11.292;2022-11-13T05:23:29;5.50;99.90
24402;DHT22;12539;48.808;11.292;2022-11-13T05:28:28;5.50;99.90
24402;DHT22;12539;48.808;11.292;2022-11-13T05:31:02;5.60;99.90
24402;DHT22;12539;48.808;11.292;2022-11-13T05:33:28;5.60;99.90
24402;DHT22;12539;48.808;11.292;2022-11-13T05:35:54;5.60;99.90
24402;DHT22;12539;48.808;11.292;2022-11-13T05:38:19;5.70;99.90
24402;DHT22;12539;48.808;11.292;2022-11-13T05:40:45;5.70;99.90
24402;DHT22;12539;48.808;11.292;2022-11-13T05:43:11;5.70;99.90
24402;DHT22;12539;48.808;11.292;2022-11-13T05:45:36;5.60;99.90
24402;DHT22;12539;48.808;11.292;2022-11-13T05:48:02;5.50;99.90
24402;DHT22;12539;48.808;11.292;2022-11-13T05:50:28;5.60;99.90
24402;DHT22;12539;48.808;11.292;2022-11-13T05:52:53;5.60;99.90
24402;DHT22;12539;48.808;11.292;2022-11-13T05:55:19;5.60;99.90
24402;DHT22;12539;48.808;11.292;2022-11-13T05:57:45;5.70;99.90
24402;DHT22;12539;48.808;11.292;2022-11-13T06:00:11;5.70;99.90
24402;DHT22;12539;48.808;11.292;2022-11-13T06:02:36;5.70;99.90
24402;DHT22;12539;48.808;11.292;2022-11-13T06:05:02;5.70;99.90
24402;DHT22;12539;48.808;11.292;2022-11-13T06:07:28;5.60;99.90
24402;DHT22;12539;48.808;11.292;2022-11-13T06:09:53;5.60;99.90
24402;DHT22;12539;48.808;11.292;2022-11-13T06:12:19;5.60;99.90
24402;DHT22;12539;48.808;11.292;2022-11-13T06:14:45;5.60;99.90
24402;DHT22;12539;48.808;11.292;2022-11-13T06:17:10;5.70;99.90
24402;DHT22;12539;48.808;11.292;2022-11-13T06:19:36;5.60;99.90
24402;DHT22;12539;48.808;11.292;2022-11-13T06:22:02;5.60;99.90
24402;DHT22;12539;48.808;11.292;2022-11-13T06:24:27;5.60;99.90
24402;DHT22;12539;48.808;11.292;2022-11-13T06:26:53;5.50;99.90
24402;DHT22;12539;48.808;11.292;2022-11-13T06:29:18;5.50;99.90
24402;DHT22;12539;48.808;11.292;2022-11-13T06:31:44;5.50;99.90
24402;DHT22;12539;48.808;11.292;2022-11-13T06:34:10;5.60;99.90
24402;DHT22;12539;48.808;11.292;2022-11-13T06:36:36;5.70;99.90
24402;DHT22;12539;48.808;11.292;2022-11-13T06:39:07;5.70;99.90
24402;DHT22;12539;48.808;11.292;2022-11-13T06:41:33;5.70;99.90
24402;DHT22;12539;48.808;11.292;2022-11-13T06:43:59;5.80;99.90
24402;DHT22;12539;48.808;11.292;2022-11-13T06:46:27;5.80;99.90
24402;DHT22;12539;48.808;11.292;2022-11-13T06:48:53;5.80;99.90
24402;DHT22;12539;48.808;11.292;2022-11-13T06:51:27;5.80;99.90
24402;DHT22;12539;48.808;11.292;2022-11-13T06:53:53;5.80;99.90
24402;DHT22;12539;48.808;11.292;2022-11-13T06:56:19;5.80;99.90
24402;DHT22;12539;48.808;11.292;2022-11-13T06:58:46;5.80;99.90
24402;DHT22;12539;48.808;11.292;2022-11-13T07:01:23;5.90;99.90
24402;DHT22;12539;48.808;11.292;2022-11-13T07:03:49;6.00;99.90
24402;DHT22;12539;48.808;11.292;2022-11-13T07:06:18;6.10;99.90
24402;DHT22;12539;48.808;11.292;2022-11-13T07:08:45;6.20;99.90
24402;DHT22;12539;48.808;11.292;2022-11-13T07:11:13;6.40;99.90
24402;DHT22;12539;48.808;11.292;2022-11-13T07:13:39;6.50;99.90
24402;DHT22;12539;48.808;11.292;2022-11-13T07:16:07;6.50;99.90
24402;DHT22;12539;48.808;11.292;2022-11-13T07:18:34;6.60;99.90
24402;DHT22;12539;48.808;11.292;2022-11-13T07:21:08;6.70;99.90
24402;DHT22;12539;48.808;11.292;2022-11-13T07:23:35;6.80;99.90
24402;DHT22;12539;48.808;11.292;2022-11-13T07:26:02;6.70;99.90
24402;DHT22;12539;48.808;11.292;2022-11-13T07:28:29;6.80;99.90
24402;DHT22;12539;48.808;11.292;2022-11-13T07:30:58;6.80;99.90
24402;DHT22;12539;48.808;11.292;2022-11-13T07:33:24;6.90;99.90
24402;DHT22;12539;48.808;11.292;2022-11-13T07:35:55;6.90;99.90
24402;DHT22;12539;48.808;11.292;2022-11-13T07:38:21;7.00;99.90
24402;DHT22;12539;48.808;11.292;2022-11-13T07:40:47;7.10;99.90
24402;DHT22;12539;48.808;11.292;2022-11-13T07:43:12;7.20;99.90
24402;DHT22;12539;48.808;11.292;2022-11-13T07:45:38;7.30;99.90
24402;DHT22;12539;48.808;11.292;2022-11-13T07:48:04;7.40;99.90
24402;DHT22;12539;48.808;11.292;2022-11-13T07:50:32;7.40;99.90
24402;DHT22;12539;48.808;11.292;2022-11-13T07:52:59;7.50;99.90
24402;DHT22;12539;48.808;11.292;2022-11-13T07:55:25;7.50;99.90
24402;DHT22;12539;48.808;11.292;2022-11-13T07:57:55;7.60;99.90
24402;DHT22;12539;48.808;11.292;2022-11-13T08:00:21;7.60;99.90
24402;DHT22;12539;48.808;11.292;2022-11-13T08:02:46;7.70;99.90
24402;DHT22;12539;48.808;11.292;2022-11-13T08:05:13;7.80;99.90
24402;DHT22;12539;48.808;11.292;2022-11-13T08:07:39;7.80;99.90
24402;DHT22;12539;48.808;11.292;2022-11-13T08:10:05;7.80;99.90
24402;DHT22;12539;48.808;11.292;2022-11-13T08:12:31;7.90;99.90
24402;DHT22;12539;48.808;11.292;2022-11-13T08:14:56;7.90;99.90
24402;DHT22;12539;48.808;11.292;2022-11-13T08:17:22;7.90;99.90
24402;DHT22;12539;48.808;11.292;2022-11-13T08:19:48;8.00;99.90
24402;DHT22;12539;48.808;11.292;2022-11-13T08:22:13;8.00;99.90
24402;DHT22;12539;48.808;11.292;2022-11-13T08:24:39;8.10;99.90
24402;DHT22;12539;48.808;11.292;2022-11-13T08:27:05;8.20;99.90
24402;DHT22;12539;48.808;11.292;2022-11-13T08:29:31;8.20;99.90
24402;DHT22;12539;48.808;11.292;2022-11-13T08:31:57;8.30;99.90
24402;DHT22;12539;48.808;11.292;2022-11-13T08:34:23;8.30;99.90
24402;DHT22;12539;48.808;11.292;2022-11-13T08:36:49;8.40;99.90
24402;DHT22;12539;48.808;11.292;2022-11-13T08:39:14;8.40;99.90
24402;DHT22;12539;48.808;11.292;2022-11-13T08:41:40;8.40;99.90
24402;DHT22;12539;48.808;11.292;2022-11-13T08:44:06;8.50;99.90
24402;DHT22;12539;48.808;11.292;2022-11-13T08:46:31;8.50;99.90
24402;DHT22;12539;48.808;11.292;2022-11-13T08:48:57;8.50;99.90
24402;DHT22;12539;48.808;11.292;2022-11-13T08:51:23;8.40;99.90
24402;DHT22;12539;48.808;11.292;2022-11-13T08:53:48;8.40;99.90
24402;DHT22;12539;48.808;11.292;2022-11-13T08:56:14;8.40;99.90
24402;DHT22;12539;48.808;11.292;2022-11-13T08:58:40;8.40;99.90
24402;DHT22;12539;48.808;11.292;2022-11-13T09:01:05;8.40;99.90
24402;DHT22;12539;48.808;11.292;2022-11-13T09:03:31;8.30;99.90
24402;DHT22;12539;48.808;11.292;2022-11-13T09:05:56;8.40;99.90
24402;DHT22;12539;48.808;11.292;2022-11-13T09:08:22;8.40;99.90
24402;DHT22;12539;48.808;11.292;2022-11-13T09:10:48;8.40;99.90
24402;DHT22;12539;48.808;11.292;2022-11-13T09:13:13;8.40;99.90
24402;DHT22;12539;48.808;11.292;2022-11-13T09:15:39;8.50;99.90
24402;DHT22;12539;48.808;11.292;2022-11-13T09:18:05;8.40;99.90
24402;DHT22;12539;48.808;11.292;2022-11-13T09:20:32;8.40;99.90
24402;DHT22;12539;48.808;11.292;2022-11-13T09:23:03;8.40;99.90
24402;DHT22;12539;48.808;11.292;2022-11-13T09:25:30;8.50;99.90
24402;DHT22;12539;48.808;11.292;2022-11-13T09:27:58;8.50;99.90
24402;DHT22;12539;48.808;11.292;2022-11-13T09:30:25;8.50;99.90
24402;DHT22;12539;48.808;11.292;2022-11-13T09:32:55;8.50;99.90
24402;DHT22;12539;48.808;11.292;2022-11-13T09:35:23;8.50;99.90
24402;DHT22;12539;48.808;11.292;2022-11-13T09:38:06;8.60;99.90
24402;DHT22;12539;48.808;11.292;2022-11-13T09:40:58;8.50;99.90
24402;DHT22;12539;48.808;11.292;2022-11-13T09:43:49;8.60;99.90
24402;DHT22;12539;48.808;11.292;2022-11-13T09:48:58;8.70;99.90
24402;DHT22;12539;48.808;11.292;2022-11-13T09:51:29;8.70;99.90
24402;DHT22;12539;48.808;11.292;2022-11-13T09:53:56;8.80;99.90
24402;DHT22;12539;48.808;11.292;2022-11-13T09:56:27;8.80;99.90
24402;DHT22;12539;48.808;11.292;2022-11-13T10:04:07;9.10;99.90
24402;DHT22;12539;48.808;11.292;2022-11-13T10:11:54;9.20;99.90
24402;DHT22;12539;48.808;11.292;2022-11-13T10:14:36;9.30;99.90
24402;DHT22;12539;48.808;11.292;2022-11-13T10:17:11;9.30;99.90
24402;DHT22;12539;48.808;11.292;2022-11-13T10:20:04;9.40;99.90
24402;DHT22;12539;48.808;11.292;2022-11-13T10:22:34;9.50;99.90
24402;DHT22;12539;48.808;11.292;2022-11-13T10:27:36;9.60;99.90
24402;DHT22;12539;48.808;11.292;2022-11-13T10:30:02;9.70;99.90
24402;DHT22;12539;48.808;11.292;2022-11-13T10:32:32;9.70;99.90
24402;DHT22;12539;48.808;11.292;2022-11-13T10:40:31;9.90;99.90
24402;DHT22;12539;48.808;11.292;2022-11-13T10:45:31;10.00;99.90
24402;DHT22;12539;48.808;11.292;2022-11-13T10:47:57;10.10;99.90
24402;DHT22;12539;48.808;11.292;2022-11-13T10:50:27;10.20;99.90
24402;DHT22;12539;48.808;11.292;2022-11-13T10:52:54;10.20;99.90
24402;DHT22;12539;48.808;11.292;2022-11-13T10:58:00;10.30;99.90
24402;DHT22;12539;48.808;11.292;2022-11-13T11:02:55;10.40;99.90
24402;DHT22;12539;48.808;11.292;2022-11-13T11:05:23;10.50;99.90
24402;DHT22;12539;48.808;11.292;2022-11-13T11:07:49;10.60;99.90
24402;DHT22;12539;48.808;11.292;2022-11-13T11:10:32;10.70;99.90
24402;DHT22;12539;48.808;11.292;2022-11-13T11:13:04;10.80;99.90
24402;DHT22;12539;48.808;11.292;2022-11-13T11:18:02;10.90;99.90
24402;DHT22;12539;48.808;11.292;2022-11-13T11:20:57;10.90;99.90
24402;DHT22;12539;48.808;11.292;2022-11-13T11:26:06;11.00;99.90
24402;DHT22;12539;48.808;11.292;2022-11-13T11:29:15;11.00;99.90
24402;DHT22;12539;48.808;11.292;2022-11-13T11:34:23;11.00;99.90
24402;DHT22;12539;48.808;11.292;2022-11-13T11:37:04;11.00;99.90
24402;DHT22;12539;48.808;11.292;2022-11-13T11:39:42;11.00;99.90
24402;DHT22;12539;48.808;11.292;2022-11-13T11:45:43;11.10;99.90
24402;DHT22;12539;48.808;11.292;2022-11-13T11:47:37;11.10;99.90
24402;DHT22;12539;48.808;11.292;2022-11-13T11:50:10;11.10;99.90
24402;DHT22;12539;48.808;11.292;2022-11-13T11:52:54;11.10;99.90
24402;DHT22;12539;48.808;11.292;2022-11-13T12:09:44;11.20;99.90
24402;DHT22;12539;48.808;11.292;2022-11-13T12:15:09;11.20;99.90
24402;DHT22;12539;48.808;11.292;2022-11-13T12:17:47;11.20;99.90
24402;DHT22;12539;48.808;11.292;2022-11-13T12:20:23;11.20;99.90
24402;DHT22;12539;48.808;11.292;2022-11-13T12:22:53;11.20;99.90
24402;DHT22;12539;48.808;11.292;2022-11-13T12:36:51;11.40;99.90
24402;DHT22;12539;48.808;11.292;2022-11-13T12:39:45;11.40;99.90
24402;DHT22;12539;48.808;11.292;2022-11-13T12:42:18;11.50;99.90
24402;DHT22;12539;48.808;11.292;2022-11-13T12:47:48;11.40;99.90
24402;DHT22;12539;48.808;11.292;2022-11-13T12:50:29;11.40;99.90
24402;DHT22;12539;48.808;11.292;2022-11-13T12:53:08;11.40;99.90
24402;DHT22;12539;48.808;11.292;2022-11-13T12:55:37;11.40;99.90
24402;DHT22;12539;48.808;11.292;2022-11-13T12:58:09;11.40;99.90
24402;DHT22;12539;48.808;11.292;2022-11-13T13:00:38;11.40;99.90
24402;DHT22;12539;48.808;11.292;2022-11-13T13:17:24;11.40;99.90
24402;DHT22;12539;48.808;11.292;2022-11-13T13:20:39;11.50;99.90
24402;DHT22;12539;48.808;11.292;2022-11-13T13:22:55;11.50;99.90
24402;DHT22;12539;48.808;11.292;2022-11-13T13:25:28;11.50;99.90
24402;DHT22;12539;48.808;11.292;2022-11-13T13:30:50;11.50;99.90
24402;DHT22;12539;48.808;11.292;2022-11-13T13:47:14;11.50;99.90
24402;DHT22;12539;48.808;11.292;2022-11-13T13:49:42;11.50;99.90
24402;DHT22;12539;48.808;11.292;2022-11-13T13:52:13;11.50;99.90
24402;DHT22;12539;48.808;11.292;2022-11-13T13:54:40;11.50;99.90
24402;DHT22;12539;48.808;11.292;2022-11-13T13:57:11;11.50;99.90
24402;DHT22;12539;48.808;11.292;2022-11-13T13:59:40;11.50;99.90
24402;DHT22;12539;48.808;11.292;2022-11-13T14:02:20;11.50;99.90
24402;DHT22;12539;48.808;11.292;2022-11-13T14:04:52;11.50;99.90
24402;DHT22;12539;48.808;11.292;2022-11-13T14:07:27;11.50;99.90
24402;DHT22;12539;48.808;11.292;2022-11-13T14:10:05;11.50;99.90
24402;DHT22;12539;48.808;11.292;2022-11-13T14:12:31;11.50;99.90
24402;DHT22;12539;48.808;11.292;2022-11-13T14:14:57;11.50;99.90
24402;DHT22;12539;48.808;11.292;2022-11-13T14:17:23;11.50;99.90
24402;DHT22;12539;48.808;11.292;2022-11-13T14:19:54;11.50;99.90
24402;DHT22;12539;48.808;11.292;2022-11-13T14:22:21;11.50;99.90
24402;DHT22;12539;48.808;11.292;2022-11-13T14:24:49;11.40;99.90
24402;DHT22;12539;48.808;11.292;2022-11-13T14:27:24;11.50;99.90
24402;DHT22;12539;48.808;11.292;2022-11-13T14:29:59;11.50;99.90
24402;DHT22;12539;48.808;11.292;2022-11-13T14:32:32;11.40;99.90
24402;DHT22;12539;48.808;11.292;2022-11-13T14:35:00;11.50;99.90
24402;DHT22;12539;48.808;11.292;2022-11-13T14:37:38;11.40;99.90
24402;DHT22;12539;48.808;11.292;2022-11-13T14:42:46;11.40;99.90
24402;DHT22;12539;48.808;11.292;2022-11-13T14:45:17;11.40;99.90
24402;DHT22;12539;48.808;11.292;2022-11-13T14:47:53;11.40;99.90
24402;DHT22;12539;48.808;11.292;2022-11-13T14:50:26;11.40;99.90
24402;DHT22;12539;48.808;11.292;2022-11-13T14:53:04;11.40;99.90
24402;DHT22;12539;48.808;11.292;2022-11-13T14:55:32;11.40;99.90
24402;DHT22;12539;48.808;11.292;2022-11-13T14:57:59;11.40;99.90
24402;DHT22;12539;48.808;11.292;2022-11-13T15:00:28;11.50;99.90
24402;DHT22;12539;48.808;11.292;2022-11-13T15:02:54;11.50;99.90
24402;DHT22;12539;48.808;11.292;2022-11-13T15:05:19;11.50;99.90
24402;DHT22;12539;48.808;11.292;2022-11-13T15:07:45;11.50;99.90
24402;DHT22;12539;48.808;11.292;2022-11-13T15:10:15;11.40;99.90
24402;DHT22;12539;48.808;11.292;2022-11-13T15:12:41;11.40;99.90
24402;DHT22;12539;48.808;11.292;2022-11-13T15:15:16;11.40;99.90
24402;DHT22;12539;48.808;11.292;2022-11-13T15:17:44;11.40;99.90
24402;DHT22;12539;48.808;11.292;2022-11-13T15:20:16;11.30;99.90
24402;DHT22;12539;48.808;11.292;2022-11-13T15:22:42;11.30;99.90
24402;DHT22;12539;48.808;11.292;2022-11-13T15:25:15;11.20;99.90
24402;DHT22;12539;48.808;11.292;2022-11-13T15:27:42;11.20;99.90
24402;DHT22;12539;48.808;11.292;2022-11-13T15:30:08;11.20;99.90
24402;DHT22;12539;48.808;11.292;2022-11-13T15:32:34;11.20;99.90
24402;DHT22;12539;48.808;11.292;2022-11-13T15:35:00;11.20;99.90
24402;DHT22;12539;48.808;11.292;2022-11-13T15:37:25;11.10;99.90
24402;DHT22;12539;48.808;11.292;2022-11-13T15:39:51;11.00;99.90
24402;DHT22;12539;48.808;11.292;2022-11-13T15:42:30;10.90;99.90
24402;DHT22;12539;48.808;11.292;2022-11-13T15:44:57;10.90;99.90
24402;DHT22;12539;48.808;11.292;2022-11-13T15:47:26;10.90;99.90
24402;DHT22;12539;48.808;11.292;2022-11-13T15:49:52;10.90;99.90
24402;DHT22;12539;48.808;11.292;2022-11-13T15:52:21;10.90;99.90
24402;DHT22;12539;48.808;11.292;2022-11-13T15:54:47;10.90;99.90
24402;DHT22;12539;48.808;11.292;2022-11-13T15:57:40;10.80;99.90
24402;DHT22;12539;48.808;11.292;2022-11-13T16:00:19;10.80;99.90
24402;DHT22;12539;48.808;11.292;2022-11-13T16:02:52;10.80;99.90
24402;DHT22;12539;48.808;11.292;2022-11-13T16:05:21;10.60;99.90
24402;DHT22;12539;48.808;11.292;2022-11-13T16:07:52;10.60;99.90
24402;DHT22;12539;48.808;11.292;2022-11-13T16:10:18;10.60;99.90
24402;DHT22;12539;48.808;11.292;2022-11-13T16:12:44;10.50;99.90
24402;DHT22;12539;48.808;11.292;2022-11-13T16:15:14;10.50;99.90
24402;DHT22;12539;48.808;11.292;2022-11-13T16:17:42;10.50;99.90
24402;DHT22;12539;48.808;11.292;2022-11-13T16:20:13;10.40;99.90
24402;DHT22;12539;48.808;11.292;2022-11-13T16:22:41;10.40;99.90
24402;DHT22;12539;48.808;11.292;2022-11-13T16:25:12;10.40;99.90
24402;DHT22;12539;48.808;11.292;2022-11-13T16:27:38;10.30;99.90
24402;DHT22;12539;48.808;11.292;2022-11-13T16:30:04;10.30;99.90
24402;DHT22;12539;48.808;11.292;2022-11-13T16:32:30;10.30;99.90
24402;DHT22;12539;48.808;11.292;2022-11-13T16:34:56;10.30;99.90
24402;DHT22;12539;48.808;11.292;2022-11-13T16:37:22;10.30;99.90
24402;DHT22;12539;48.808;11.292;2022-11-13T16:39:48;10.20;99.90
24402;DHT22;12539;48.808;11.292;2022-11-13T16:42:15;10.20;99.90
24402;DHT22;12539;48.808;11.292;2022-11-13T16:44:41;10.20;99.90
24402;DHT22;12539;48.808;11.292;2022-11-13T16:49:44;10.20;99.90
24402;DHT22;12539;48.808;11.292;2022-11-13T16:52:10;10.20;99.90
24402;DHT22;12539;48.808;11.292;2022-11-13T16:54:35;10.10;99.90
24402;DHT22;12539;48.808;11.292;2022-11-13T16:57:01;10.10;99.90
24402;DHT22;12539;48.808;11.292;2022-11-13T16:59:27;10.10;99.90
24402;DHT22;12539;48.808;11.292;2022-11-13T17:01:53;10.10;99.90
24402;DHT22;12539;48.808;11.292;2022-11-13T17:04:19;10.10;99.90
24402;DHT22;12539;48.808;11.292;2022-11-13T17:06:45;10.10;99.90
24402;DHT22;12539;48.808;11.292;2022-11-13T17:09:11;10.10;99.90
24402;DHT22;12539;48.808;11.292;2022-11-13T17:11:37;10.10;99.90
24402;DHT22;12539;48.808;11.292;2022-11-13T17:14:03;10.00;99.90
24402;DHT22;12539;48.808;11.292;2022-11-13T17:16:30;10.10;99.90
24402;DHT22;12539;48.808;11.292;2022-11-13T17:19:14;10.00;99.90
24402;DHT22;12539;48.808;11.292;2022-11-13T17:21:40;10.10;99.90
24402;DHT22;12539;48.808;11.292;2022-11-13T17:24:07;10.10;99.90
24402;DHT22;12539;48.808;11.292;2022-11-13T17:26:33;10.10;99.90